Terminal Aerodrome Forecast
Issued by NWS

Home | Current Version | Previous Version | Text Only | Print | Product List | Glossary On
Versions: 1 2 3 4 5 6 7 8 9 10 11 12 13 14 15
000
FTUS44 KBMX 250540
TAFTCL
TAF
KTCL 250540Z 2506/2606 22008KT P6SM SCT070
     FM250700 29010KT P6SM VCTS BKN035 OVC070CB
      TEMPO 2507/2508 BKN015 OVC040CB
     FM250830 32013KT P6SM BKN050
     FM251100 33012KT P6SM SKC
     FM251600 31011G18KT P6SM SKC=

USA.gov is the U.S. government's official web portal to all federal, state and local government web resources and services.